createdAt,value
2017-05-04T00:00:27.905Z,1012.3
2017-05-04T00:01:29.169Z,1012.34
2017-05-04T00:02:30.391Z,1012.35
2017-05-04T00:03:31.662Z,1012.33
2017-05-04T00:04:32.924Z,1012.33
2017-05-04T00:05:34.147Z,1012.35
2017-05-04T00:06:35.377Z,1012.34
2017-05-04T00:07:36.612Z,1012.3
2017-05-04T00:08:37.892Z,1012.27
2017-05-04T00:09:39.115Z,1012.29
2017-05-04T00:10:40.359Z,1012.27
2017-05-04T00:11:41.615Z,1012.29
2017-05-04T00:12:42.880Z,1012.35
2017-05-04T00:13:44.191Z,1012.29
2017-05-04T00:14:45.627Z,1012.26
2017-05-04T00:15:46.867Z,1012.29
2017-05-04T00:16:48.098Z,1012.28
2017-05-04T00:17:49.473Z,1012.29
2017-05-04T00:18:50.595Z,1012.25
2017-05-04T00:19:51.957Z,1012.29
2017-05-04T00:20:53.221Z,1012.2
2017-05-04T00:21:54.456Z,1012.22
2017-05-04T00:22:55.693Z,1012.24
2017-05-04T00:23:56.969Z,1012.28
2017-05-04T00:24:58.224Z,1012.22
2017-05-04T00:25:59.461Z,1012.22
2017-05-04T00:27:00.699Z,1012.21
2017-05-04T00:28:01.958Z,1012.23
2017-05-04T00:29:03.377Z,1012.22
2017-05-04T00:30:04.653Z,1012.21
2017-05-04T00:31:06.036Z,1012.17
2017-05-04T00:32:07.255Z,1012.22
2017-05-04T00:33:08.495Z,1012.21
2017-05-04T00:34:09.752Z,1012.2
2017-05-04T00:35:11.001Z,1012.22
2017-05-04T00:36:12.241Z,1012.21
2017-05-04T00:37:13.478Z,1012.21
2017-05-04T00:38:14.696Z,1012.18
2017-05-04T00:39:16.024Z,1012.15
2017-05-04T00:40:17.246Z,1012.2
2017-05-04T00:41:18.475Z,1012.14
2017-05-04T00:42:19.802Z,1012.16
2017-05-04T00:43:21.494Z,1012.11
2017-05-04T00:44:22.624Z,1012.11
2017-05-04T00:45:23.863Z,1012.09
2017-05-04T00:46:25.103Z,1012.14
2017-05-04T00:47:26.359Z,1012.14
2017-05-04T00:48:27.580Z,1012.1
2017-05-04T00:49:28.841Z,1012.09
2017-05-04T00:50:30.064Z,1012.11
2017-05-04T00:51:31.308Z,1012.07
2017-05-04T00:52:32.604Z,1012.07
2017-05-04T00:53:33.930Z,1012.12
2017-05-04T00:54:35.166Z,1012.02
2017-05-04T00:55:36.475Z,1012.08
2017-05-04T00:56:37.769Z,1012.04
2017-05-04T00:57:38.998Z,1012
2017-05-04T00:58:40.218Z,1011.99
2017-05-04T00:59:41.448Z,1012.02
2017-05-04T01:00:42.746Z,1012.03
2017-05-04T01:01:44.086Z,1012.02
2017-05-04T01:02:45.344Z,1012.02
2017-05-04T01:03:46.602Z,1012
2017-05-04T01:04:47.826Z,1011.98
2017-05-04T01:05:49.074Z,1012
2017-05-04T01:06:50.562Z,1012.03
2017-05-04T01:07:51.814Z,1012.07
2017-05-04T01:08:53.050Z,1011.99
2017-05-04T01:09:54.287Z,1011.96
2017-05-04T01:10:55.554Z,1011.97
2017-05-04T01:11:56.796Z,1011.97
2017-05-04T01:12:58.140Z,1011.99
2017-05-04T01:13:59.424Z,1011.92
2017-05-04T01:15:00.666Z,1011.97
2017-05-04T01:16:01.894Z,1011.91
2017-05-04T01:17:03.129Z,1011.93
2017-05-04T01:18:04.416Z,1011.98
2017-05-04T01:19:05.655Z,1011.92
2017-05-04T01:20:06.891Z,1011.94
2017-05-04T01:21:08.133Z,1011.96
2017-05-04T01:22:09.364Z,1011.95
2017-05-04T01:23:10.619Z,1011.99
2017-05-04T01:24:11.884Z,1011.93
2017-05-04T01:25:13.113Z,1011.97
2017-05-04T01:26:14.386Z,1011.93
2017-05-04T01:27:15.643Z,1011.91
2017-05-04T01:28:16.885Z,1011.99
2017-05-04T01:29:18.126Z,1011.97
2017-05-04T01:30:19.416Z,1011.92
2017-05-04T01:31:20.675Z,1011.9
2017-05-04T01:32:22.072Z,1011.9
2017-05-04T01:33:23.465Z,1011.92
2017-05-04T01:34:24.738Z,1011.92
2017-05-04T01:35:25.971Z,1011.89
2017-05-04T01:36:27.228Z,1011.88
2017-05-04T01:37:28.455Z,1011.93
2017-05-04T01:38:29.774Z,1011.93
2017-05-04T01:39:31.011Z,1011.88
2017-05-04T01:40:32.222Z,1011.89
2017-05-04T01:41:33.466Z,1011.88
2017-05-04T01:42:34.705Z,1011.84
2017-05-04T01:43:35.951Z,1011.8
2017-05-04T01:44:37.189Z,1011.81
2017-05-04T01:45:38.432Z,1011.8
2017-05-04T01:46:39.708Z,1011.83
2017-05-04T01:47:40.949Z,1011.82
2017-05-04T01:48:42.188Z,1011.82
2017-05-04T01:49:43.442Z,1011.83
2017-05-04T01:50:44.726Z,1011.81
2017-05-04T01:51:46.002Z,1011.82
2017-05-04T01:52:47.275Z,1011.79
2017-05-04T01:53:48.473Z,1011.76
2017-05-04T01:54:49.704Z,1011.78
2017-05-04T01:55:50.962Z,1011.76
2017-05-04T01:56:52.218Z,1011.8
2017-05-04T01:57:53.506Z,1011.84
2017-05-04T01:58:54.726Z,1011.8
2017-05-04T01:59:55.974Z,1011.8
2017-05-04T02:00:57.191Z,1011.8
2017-05-04T02:01:58.430Z,1011.8
2017-05-04T02:02:59.668Z,1011.73
2017-05-04T02:04:00.920Z,1011.76
2017-05-04T02:05:02.234Z,1011.76
2017-05-04T02:06:03.482Z,1011.78
2017-05-04T02:07:04.727Z,1011.74
2017-05-04T02:08:05.948Z,1011.77
2017-05-04T02:09:07.184Z,1011.75
2017-05-04T02:10:08.479Z,1011.73
2017-05-04T02:11:09.829Z,1011.78
2017-05-04T02:12:11.096Z,1011.77
2017-05-04T02:13:12.304Z,1011.78
2017-05-04T02:14:13.536Z,1011.81
2017-05-04T02:15:14.775Z,1011.81
2017-05-04T02:16:16.074Z,1011.74
2017-05-04T02:17:17.335Z,1011.7
2017-05-04T02:18:18.569Z,1011.78
2017-05-04T02:19:19.819Z,1011.76
2017-05-04T02:20:21.069Z,1011.71
2017-05-04T02:21:22.368Z,1011.74
2017-05-04T02:22:23.748Z,1011.78
2017-05-04T02:23:24.996Z,1011.76
2017-05-04T02:24:26.227Z,1011.74
2017-05-04T02:25:27.462Z,1011.71
2017-05-04T02:26:28.722Z,1011.72
2017-05-04T02:27:29.954Z,1011.72
2017-05-04T02:28:31.192Z,1011.69
2017-05-04T02:29:32.443Z,1011.77
2017-05-04T02:30:33.669Z,1011.75
2017-05-04T02:31:34.911Z,1011.72
2017-05-04T02:32:36.139Z,1011.74
2017-05-04T02:33:37.388Z,1011.75
2017-05-04T02:34:38.689Z,1011.72
2017-05-04T02:35:39.965Z,1011.68
2017-05-04T02:36:41.211Z,1011.74
2017-05-04T02:37:42.436Z,1011.73
2017-05-04T02:38:43.760Z,1011.74
2017-05-04T02:39:44.983Z,1011.78
2017-05-04T02:40:46.233Z,1011.8
2017-05-04T02:41:47.472Z,1011.8
2017-05-04T02:42:48.725Z,1011.79
2017-05-04T02:43:50.056Z,1011.77
2017-05-04T02:44:51.300Z,1011.77
2017-05-04T02:45:52.555Z,1011.78
2017-05-04T02:46:53.787Z,1011.78
2017-05-04T02:47:55.025Z,1011.77
2017-05-04T02:48:56.255Z,1011.73
2017-05-04T02:49:57.494Z,1011.72
2017-05-04T02:50:58.732Z,1011.69
2017-05-04T02:51:59.974Z,1011.75
2017-05-04T02:53:01.211Z,1011.7
2017-05-04T02:54:02.460Z,1011.73
2017-05-04T02:55:03.735Z,1011.73
2017-05-04T02:56:04.970Z,1011.73
2017-05-04T02:57:06.227Z,1011.69
2017-05-04T02:58:07.469Z,1011.7
2017-05-04T02:59:08.715Z,1011.69
2017-05-04T03:00:09.945Z,1011.71
2017-05-04T03:01:11.208Z,1011.72
2017-05-04T03:02:12.581Z,1011.7
2017-05-04T03:03:13.863Z,1011.7
2017-05-04T03:04:15.099Z,1011.71
2017-05-04T03:05:16.338Z,1011.69
2017-05-04T03:06:17.568Z,1011.67
2017-05-04T03:07:18.834Z,1011.66
2017-05-04T03:08:20.077Z,1011.66
2017-05-04T03:09:21.318Z,1011.64
2017-05-04T03:10:22.574Z,1011.66
2017-05-04T03:11:23.820Z,1011.67
2017-05-04T03:12:25.066Z,1011.66
2017-05-04T03:13:26.305Z,1011.61
2017-05-04T03:14:27.542Z,1011.62
2017-05-04T03:15:28.780Z,1011.62
2017-05-04T03:16:30.152Z,1011.65
2017-05-04T03:17:31.390Z,1011.66
2017-05-04T03:18:32.641Z,1011.65
2017-05-04T03:19:33.877Z,1011.69
2017-05-04T03:20:35.139Z,1011.63
2017-05-04T03:21:36.386Z,1011.65
2017-05-04T03:22:37.652Z,1011.64
2017-05-04T03:23:38.866Z,1011.66
2017-05-04T03:24:40.105Z,1011.66
2017-05-04T03:25:41.342Z,1011.65
2017-05-04T03:26:42.693Z,1011.63
2017-05-04T03:27:44.089Z,1011.6
2017-05-04T03:28:45.352Z,1011.64
2017-05-04T03:29:46.580Z,1011.61
2017-05-04T03:30:47.809Z,1011.67
2017-05-04T03:31:49.065Z,1011.64
2017-05-04T03:32:50.285Z,1011.66
2017-05-04T03:33:51.526Z,1011.66
2017-05-04T03:34:52.785Z,1011.65
2017-05-04T03:35:54.048Z,1011.63
2017-05-04T03:36:55.293Z,1011.62
2017-05-04T03:37:56.594Z,1011.62
2017-05-04T03:38:57.862Z,1011.58
2017-05-04T03:39:59.109Z,1011.6
2017-05-04T03:41:00.322Z,1011.59
2017-05-04T03:42:01.591Z,1011.57
2017-05-04T03:43:02.830Z,1011.55
2017-05-04T03:44:04.086Z,1011.55
2017-05-04T03:45:05.336Z,1011.55
2017-05-04T03:46:06.565Z,1011.53
2017-05-04T03:47:07.873Z,1011.57
2017-05-04T03:48:09.184Z,1011.58
2017-05-04T03:49:10.432Z,1011.61
2017-05-04T03:50:11.715Z,1011.59
2017-05-04T03:51:12.996Z,1011.61
2017-05-04T03:52:14.254Z,1011.62
2017-05-04T03:53:15.500Z,1011.64
2017-05-04T03:54:16.729Z,1011.63
2017-05-04T03:55:18.058Z,1011.66
2017-05-04T03:56:19.295Z,1011.62
2017-05-04T03:57:20.600Z,1011.69
2017-05-04T03:58:21.951Z,1011.65
2017-05-04T03:59:23.178Z,1011.67
2017-05-04T04:00:24.451Z,1011.64
2017-05-04T04:01:25.697Z,1011.6
2017-05-04T04:02:26.927Z,1011.64
2017-05-04T04:03:28.155Z,1011.66
2017-05-04T04:04:29.390Z,1011.66
2017-05-04T04:05:31.007Z,1011.7
2017-05-04T04:06:32.206Z,1011.68
2017-05-04T04:07:33.420Z,1011.68
2017-05-04T04:08:34.659Z,1011.69
2017-05-04T04:09:35.946Z,1011.7
2017-05-04T04:10:37.370Z,1011.69
2017-05-04T04:11:38.642Z,1011.7
2017-05-04T04:12:39.885Z,1011.68
2017-05-04T04:13:41.122Z,1011.7
2017-05-04T04:14:42.494Z,1011.69
2017-05-04T04:15:43.744Z,1011.65
2017-05-04T04:16:44.982Z,1011.65
2017-05-04T04:17:46.339Z,1011.66
2017-05-04T04:18:47.582Z,1011.69
2017-05-04T04:19:48.816Z,1011.71
2017-05-04T04:20:50.053Z,1011.67
2017-05-04T04:21:51.292Z,1011.67
2017-05-04T04:22:52.547Z,1011.66
2017-05-04T04:23:53.831Z,1011.69
2017-05-04T04:24:55.073Z,1011.66
2017-05-04T04:25:56.336Z,1011.68
2017-05-04T04:26:57.568Z,1011.71
2017-05-04T04:27:58.813Z,1011.69
2017-05-04T04:29:00.097Z,1011.69
2017-05-04T04:30:01.489Z,1011.72
2017-05-04T04:31:02.707Z,1011.7
2017-05-04T04:32:03.960Z,1011.66
2017-05-04T04:33:05.196Z,1011.7
2017-05-04T04:34:06.457Z,1011.66
2017-05-04T04:35:07.688Z,1011.69
2017-05-04T04:36:08.913Z,1011.67
2017-05-04T04:37:10.336Z,1011.7
2017-05-04T04:38:11.572Z,1011.67
2017-05-04T04:39:12.822Z,1011.66
2017-05-04T04:40:14.155Z,1011.68
2017-05-04T04:41:15.311Z,1011.63
2017-05-04T04:42:16.567Z,1011.68
2017-05-04T04:43:17.842Z,1011.66
2017-05-04T04:44:19.065Z,1011.68
2017-05-04T04:45:20.304Z,1011.68
2017-05-04T04:46:21.547Z,1011.71
2017-05-04T04:47:22.792Z,1011.68
2017-05-04T04:48:24.081Z,1011.69
2017-05-04T04:49:25.304Z,1011.64
2017-05-04T04:50:26.566Z,1011.65
2017-05-04T04:51:27.875Z,1011.59
2017-05-04T04:52:29.088Z,1011.63
2017-05-04T04:53:30.578Z,1011.68
2017-05-04T04:54:31.817Z,1011.6
2017-05-04T04:55:33.065Z,1011.63
2017-05-04T04:56:34.283Z,1011.57
2017-05-04T04:57:35.521Z,1011.6
2017-05-04T04:58:36.806Z,1011.6
2017-05-04T04:59:38.115Z,1011.59
2017-05-04T05:00:39.433Z,1011.56
2017-05-04T05:01:40.659Z,1011.53
2017-05-04T05:02:41.920Z,1011.58
2017-05-04T05:03:43.139Z,1011.58
2017-05-04T05:04:44.367Z,1011.51
2017-05-04T05:05:45.605Z,1011.5
2017-05-04T05:06:46.848Z,1011.49
2017-05-04T05:07:48.089Z,1011.48
2017-05-04T05:08:49.324Z,1011.45
2017-05-04T05:09:50.567Z,1011.45
2017-05-04T05:10:51.823Z,1011.45
2017-05-04T05:11:53.043Z,1011.4
2017-05-04T05:12:54.429Z,1011.45
2017-05-04T05:13:55.679Z,1011.45
2017-05-04T05:14:56.923Z,1011.45
2017-05-04T05:15:58.171Z,1011.43
2017-05-04T05:16:59.386Z,1011.43
2017-05-04T05:18:00.765Z,1011.44
2017-05-04T05:19:02.029Z,1011.47
2017-05-04T05:20:03.285Z,1011.47
2017-05-04T05:21:04.615Z,1011.48
2017-05-04T05:22:05.855Z,1011.47
2017-05-04T05:23:07.096Z,1011.41
2017-05-04T05:24:08.329Z,1011.43
2017-05-04T05:25:09.574Z,1011.4
2017-05-04T05:26:10.841Z,1011.43
2017-05-04T05:27:12.060Z,1011.41
2017-05-04T05:28:13.299Z,1011.45
2017-05-04T05:29:14.541Z,1011.48
2017-05-04T05:30:15.777Z,1011.44
2017-05-04T05:31:17.153Z,1011.51
2017-05-04T05:32:18.457Z,1011.47
2017-05-04T05:33:19.701Z,1011.49
2017-05-04T05:34:20.958Z,1011.52
2017-05-04T05:35:22.193Z,1011.51
2017-05-04T05:36:23.422Z,1011.55
2017-05-04T05:37:24.709Z,1011.55
2017-05-04T05:38:26.081Z,1011.55
2017-05-04T05:39:27.373Z,1011.53
2017-05-04T05:40:28.617Z,1011.53
2017-05-04T05:41:29.861Z,1011.56
2017-05-04T05:42:31.100Z,1011.57
2017-05-04T05:43:32.385Z,1011.58
2017-05-04T05:44:33.659Z,1011.61
2017-05-04T05:45:34.880Z,1011.61
2017-05-04T05:46:36.252Z,1011.58
2017-05-04T05:47:37.511Z,1011.62
2017-05-04T05:48:38.738Z,1011.55
2017-05-04T05:49:40.012Z,1011.56
2017-05-04T05:50:41.268Z,1011.62
2017-05-04T05:51:42.533Z,1011.57
2017-05-04T05:52:43.750Z,1011.55
2017-05-04T05:53:44.978Z,1011.58
2017-05-04T05:54:46.216Z,1011.52
2017-05-04T05:55:47.451Z,1011.58
2017-05-04T05:56:48.786Z,1011.55
2017-05-04T05:57:50.165Z,1011.6
2017-05-04T05:58:51.404Z,1011.63
2017-05-04T05:59:52.641Z,1011.6
2017-05-04T06:00:53.903Z,1011.64
2017-05-04T06:01:55.164Z,1011.71
2017-05-04T06:02:56.408Z,1011.65
2017-05-04T06:03:57.747Z,1011.71
2017-05-04T06:04:58.990Z,1011.57
2017-05-04T06:06:00.231Z,1011.65
2017-05-04T06:07:01.491Z,1011.65
2017-05-04T06:08:02.732Z,1011.65
2017-05-04T06:09:04.053Z,1011.68
2017-05-04T06:10:05.347Z,1011.73
2017-05-04T06:11:06.711Z,1011.73
2017-05-04T06:12:08.024Z,1011.67
2017-05-04T06:13:09.257Z,1011.66
2017-05-04T06:14:10.511Z,1011.63
2017-05-04T06:15:11.872Z,1011.63
2017-05-04T06:16:13.118Z,1011.68
2017-05-04T06:17:14.390Z,1011.65
2017-05-04T06:18:15.618Z,1011.62
2017-05-04T06:19:16.845Z,1011.67
2017-05-04T06:20:18.125Z,1011.58
2017-05-04T06:21:19.354Z,1011.65
2017-05-04T06:22:20.607Z,1011.74
2017-05-04T06:23:21.911Z,1011.67
2017-05-04T06:24:23.144Z,1011.66
2017-05-04T06:25:24.377Z,1011.72
2017-05-04T06:26:25.650Z,1011.7
2017-05-04T06:27:26.879Z,1011.65
2017-05-04T06:28:28.144Z,1011.63
2017-05-04T06:29:29.399Z,1011.65
2017-05-04T06:30:30.638Z,1011.66
2017-05-04T06:31:31.908Z,1011.76
2017-05-04T06:32:33.146Z,1011.79
2017-05-04T06:33:34.496Z,1011.75
2017-05-04T06:34:35.724Z,1011.71
2017-05-04T06:35:36.971Z,1011.69
2017-05-04T06:36:38.212Z,1011.75
2017-05-04T06:37:39.462Z,1011.76
2017-05-04T06:38:40.721Z,1011.75
2017-05-04T06:39:41.944Z,1011.73
2017-05-04T06:40:43.181Z,1011.78
2017-05-04T06:41:44.421Z,1011.74
2017-05-04T06:42:45.773Z,1011.71
2017-05-04T06:43:47.017Z,1011.82
2017-05-04T06:44:48.258Z,1011.76
2017-05-04T06:45:49.550Z,1011.75
2017-05-04T06:46:50.805Z,1011.8
2017-05-04T06:47:52.140Z,1011.82
2017-05-04T06:48:53.400Z,1011.78
2017-05-04T06:49:54.620Z,1011.81
2017-05-04T06:50:55.869Z,1011.79
2017-05-04T06:51:57.238Z,1011.79
2017-05-04T06:52:58.525Z,1011.79
2017-05-04T06:53:59.753Z,1011.77
2017-05-04T06:55:00.997Z,1011.83
2017-05-04T06:56:02.236Z,1011.8
2017-05-04T06:57:03.477Z,1011.82
2017-05-04T06:58:04.724Z,1011.76
2017-05-04T06:59:05.969Z,1011.76
2017-05-04T07:00:07.214Z,1011.74
2017-05-04T07:01:08.461Z,1011.75
2017-05-04T07:02:09.723Z,1011.87
2017-05-04T07:03:10.961Z,1011.91
2017-05-04T07:04:12.226Z,1011.83
2017-05-04T07:05:13.468Z,1011.81
2017-05-04T07:06:14.808Z,1011.79
2017-05-04T07:07:16.067Z,1011.87
2017-05-04T07:08:17.319Z,1011.87
2017-05-04T07:09:18.545Z,1011.82
2017-05-04T07:10:19.814Z,1011.8
2017-05-04T07:11:21.025Z,1011.86
2017-05-04T07:12:22.426Z,1011.91
2017-05-04T07:13:23.779Z,1011.89
2017-05-04T07:14:25.014Z,1011.85
2017-05-04T07:15:26.253Z,1011.9
2017-05-04T07:16:27.501Z,1011.87
2017-05-04T07:17:28.778Z,1011.9
2017-05-04T07:18:30.177Z,1011.92
2017-05-04T07:19:31.429Z,1012.02
2017-05-04T07:20:32.667Z,1012.07
2017-05-04T07:21:33.906Z,1012.06
2017-05-04T07:22:35.158Z,1012.03
2017-05-04T07:23:36.517Z,1011.99
2017-05-04T07:24:37.759Z,1011.99
2017-05-04T07:25:39.056Z,1011.97
2017-05-04T07:26:40.289Z,1011.91
2017-05-04T07:27:41.524Z,1011.85
2017-05-04T07:28:42.809Z,1011.91
2017-05-04T07:29:44.090Z,1011.91
2017-05-04T07:30:45.354Z,1011.9
2017-05-04T07:31:46.658Z,1011.89
2017-05-04T07:32:47.899Z,1011.96
2017-05-04T07:33:49.174Z,1011.98
2017-05-04T07:34:50.522Z,1012.07
2017-05-04T07:35:51.762Z,1012.03
2017-05-04T07:36:52.983Z,1012
2017-05-04T07:37:54.362Z,1012.09
2017-05-04T07:38:55.582Z,1012.12
2017-05-04T07:39:56.831Z,1012.06
2017-05-04T07:40:58.084Z,1012.13
2017-05-04T07:41:59.322Z,1012.11
2017-05-04T07:43:00.586Z,1012.09
2017-05-04T07:44:01.914Z,1012.14
2017-05-04T07:45:03.155Z,1012.17
2017-05-04T07:46:04.414Z,1012.23
2017-05-04T07:47:05.658Z,1012.16
2017-05-04T07:48:06.901Z,1012.1
2017-05-04T07:49:08.205Z,1012.1
2017-05-04T07:50:09.456Z,1012.2
2017-05-04T07:51:10.728Z,1012.14
2017-05-04T07:52:11.949Z,1012.15
2017-05-04T07:53:13.199Z,1012.11
2017-05-04T07:54:14.500Z,1012.16
2017-05-04T07:55:15.752Z,1012.13
2017-05-04T07:56:16.999Z,1012.15
2017-05-04T07:57:18.237Z,1012.28
2017-05-04T07:58:19.479Z,1012.25
2017-05-04T07:59:20.795Z,1012.13
2017-05-04T08:00:22.009Z,1012.16
2017-05-04T08:01:23.275Z,1012.19
2017-05-04T08:02:24.557Z,1012.27
2017-05-04T08:03:25.780Z,1012.17
2017-05-04T08:04:27.035Z,1012.18
2017-05-04T08:05:28.291Z,1012.19
2017-05-04T08:06:29.519Z,1012.24
2017-05-04T08:07:30.769Z,1012.5
2017-05-04T08:08:32.156Z,1012.5
2017-05-04T08:09:33.406Z,1012.39
2017-05-04T08:10:34.663Z,1012.56
2017-05-04T08:11:35.943Z,1012.2
2017-05-04T08:12:37.188Z,1012.15
2017-05-04T08:13:38.544Z,1012.03
2017-05-04T08:14:39.795Z,1011.96
2017-05-04T08:15:41.068Z,1011.99
2017-05-04T08:16:42.289Z,1012.04
2017-05-04T08:17:43.541Z,1012.18
2017-05-04T08:18:44.846Z,1012.38
2017-05-04T08:19:46.172Z,1012.3
2017-05-04T08:20:47.553Z,1012.28
2017-05-04T08:21:48.686Z,1012.38
2017-05-04T08:22:49.939Z,1012.39
2017-05-04T08:23:51.223Z,1012.63
2017-05-04T08:24:52.624Z,1012.4
2017-05-04T08:25:53.944Z,1012.97
2017-05-04T08:26:55.131Z,1013.03
2017-05-04T08:27:56.420Z,1012.8
2017-05-04T08:28:57.687Z,1012.95
2017-05-04T08:29:58.950Z,1012.95
2017-05-04T08:31:00.279Z,1012.93
2017-05-04T08:32:01.549Z,1013.04
2017-05-04T08:33:02.846Z,1013.11
2017-05-04T08:34:04.098Z,1012.47
2017-05-04T08:35:05.366Z,1012.08
2017-05-04T08:36:06.604Z,1011.93
2017-05-04T08:37:07.853Z,1011.94
2017-05-04T08:38:09.115Z,1012.06
2017-05-04T08:39:10.363Z,1012.16
2017-05-04T08:40:11.718Z,1012.15
2017-05-04T08:41:12.980Z,1012.09
2017-05-04T08:42:14.252Z,1012.13
2017-05-04T08:43:15.475Z,1012.15
2017-05-04T08:44:16.727Z,1013.07
2017-05-04T08:45:18.066Z,1012.11
2017-05-04T08:46:19.314Z,1012.03
2017-05-04T08:47:20.563Z,1012.09
2017-05-04T08:48:21.802Z,1012.02
2017-05-04T08:49:23.107Z,1012.08
2017-05-04T08:50:24.361Z,1012.1
2017-05-04T08:51:25.626Z,1012.63
2017-05-04T08:52:26.874Z,1012.59
2017-05-04T08:53:28.121Z,1012.2
2017-05-04T08:54:29.358Z,1012.05
2017-05-04T08:55:30.604Z,1012.2
2017-05-04T08:56:32.101Z,1012.1
2017-05-04T08:57:33.366Z,1012.04
2017-05-04T08:58:34.599Z,1012.22
2017-05-04T08:59:35.907Z,1012.3
2017-05-04T09:00:37.174Z,1012.7
2017-05-04T09:01:38.433Z,1012.45
2017-05-04T09:02:39.743Z,1012.2
2017-05-04T09:03:40.996Z,1012.08
2017-05-04T09:04:42.231Z,1012.08
2017-05-04T09:05:43.482Z,1012.19
2017-05-04T09:06:44.742Z,1012.15
2017-05-04T09:07:45.981Z,1012.16
2017-05-04T09:08:47.237Z,1012.3
2017-05-04T09:09:48.498Z,1012.32
2017-05-04T09:10:49.855Z,1012.48
2017-05-04T09:11:51.093Z,1012.43
2017-05-04T09:12:52.343Z,1012.39
2017-05-04T09:13:53.589Z,1012.82
2017-05-04T09:14:54.952Z,1012.58
2017-05-04T09:15:56.211Z,1012.61
2017-05-04T09:16:57.478Z,1013.01
2017-05-04T09:17:58.730Z,1012.69
2017-05-04T09:18:59.973Z,1013.25
2017-05-04T09:20:01.239Z,1012.8
2017-05-04T09:21:02.569Z,1013.17
2017-05-04T09:22:03.813Z,1013.27
2017-05-04T09:23:05.063Z,1013.25
2017-05-04T09:24:06.345Z,1012.6
2017-05-04T09:25:07.568Z,1012.23
2017-05-04T09:26:08.830Z,1012.13
2017-05-04T09:27:10.078Z,1012.15
2017-05-04T09:28:11.322Z,1012.07
2017-05-04T09:29:12.690Z,1012.56
2017-05-04T09:30:13.941Z,1012.8
2017-05-04T09:31:15.222Z,1012.76
2017-05-04T09:32:16.475Z,1012.36
2017-05-04T09:33:17.736Z,1012.02
2017-05-04T09:34:19.013Z,1012.13
2017-05-04T09:35:20.284Z,1012
2017-05-04T09:36:21.531Z,1011.94
2017-05-04T09:37:22.853Z,1011.94
2017-05-04T09:38:24.081Z,1012.02
2017-05-04T09:39:25.346Z,1011.87
2017-05-04T09:40:26.627Z,1011.84
2017-05-04T09:41:27.892Z,1011.89
2017-05-04T09:42:29.149Z,1011.89
2017-05-04T09:43:30.394Z,1011.84
2017-05-04T09:44:31.634Z,1011.88
2017-05-04T09:45:32.888Z,1011.89
2017-05-04T09:46:34.143Z,1011.86
2017-05-04T09:47:35.495Z,1011.97
2017-05-04T09:48:36.719Z,1012.02
2017-05-04T09:49:37.968Z,1012.06
2017-05-04T09:50:39.226Z,1012.03
2017-05-04T09:51:40.494Z,1012.08
2017-05-04T09:52:41.766Z,1012.01
2017-05-04T09:53:43.006Z,1011.91
2017-05-04T09:54:44.292Z,1011.91
2017-05-04T09:55:45.518Z,1011.84
2017-05-04T09:56:46.775Z,1011.88
2017-05-04T09:57:48.020Z,1011.94
2017-05-04T09:58:49.262Z,1011.95
2017-05-04T09:59:50.687Z,1011.95
2017-05-04T10:00:51.928Z,1011.95
2017-05-04T10:01:53.169Z,1011.94
2017-05-04T10:02:54.408Z,1012.11
2017-05-04T10:03:55.659Z,1012.01
2017-05-04T10:04:56.949Z,1011.98
2017-05-04T10:05:58.199Z,1011.94
2017-05-04T10:06:59.508Z,1011.98
2017-05-04T10:08:00.755Z,1012.09
2017-05-04T10:09:02.035Z,1012.07
2017-05-04T10:10:03.333Z,1011.91
2017-05-04T10:11:04.761Z,1011.86
2017-05-04T10:12:06.010Z,1011.83
2017-05-04T10:13:07.224Z,1012.06
2017-05-04T10:14:08.471Z,1012.04
2017-05-04T10:15:09.700Z,1011.84
2017-05-04T10:16:10.967Z,1011.99
2017-05-04T10:17:12.390Z,1011.93
2017-05-04T10:18:13.643Z,1011.91
2017-05-04T10:19:14.881Z,1011.9
2017-05-04T10:20:16.135Z,1011.85
2017-05-04T10:21:17.388Z,1011.92
2017-05-04T10:22:18.741Z,1012.04
2017-05-04T10:23:19.959Z,1012.09
2017-05-04T10:24:21.215Z,1011.93
2017-05-04T10:25:22.450Z,1011.95
2017-05-04T10:26:23.705Z,1011.96
2017-05-04T10:27:24.961Z,1011.87
2017-05-04T10:28:26.190Z,1011.96
2017-05-04T10:29:27.428Z,1012
2017-05-04T10:30:28.788Z,1011.99
2017-05-04T10:31:30.045Z,1012.03
2017-05-04T10:32:31.285Z,1011.99
2017-05-04T10:33:32.537Z,1012.06
2017-05-04T10:34:33.780Z,1011.99
2017-05-04T10:35:35.061Z,1011.97
2017-05-04T10:36:36.313Z,1012.17
2017-05-04T10:37:37.579Z,1011.98
2017-05-04T10:38:38.796Z,1011.95
2017-05-04T10:39:40.054Z,1011.98
2017-05-04T10:40:41.327Z,1011.97
2017-05-04T10:41:42.677Z,1011.94
2017-05-04T10:42:43.929Z,1011.91
2017-05-04T10:43:45.170Z,1011.94
2017-05-04T10:44:46.418Z,1011.93
2017-05-04T10:45:47.663Z,1011.96
2017-05-04T10:46:48.966Z,1012.02
2017-05-04T10:47:50.501Z,1012.03
2017-05-04T10:48:51.770Z,1012.02
2017-05-04T10:49:53.057Z,1011.98
2017-05-04T10:50:54.294Z,1012.02
2017-05-04T10:51:55.567Z,1012.01
2017-05-04T10:52:56.812Z,1011.94
2017-05-04T10:53:58.047Z,1012.06
2017-05-04T10:54:59.298Z,1011.97
2017-05-04T10:56:00.559Z,1011.98
2017-05-04T10:57:01.798Z,1011.98
2017-05-04T10:58:03.148Z,1011.98
2017-05-04T10:59:04.387Z,1012.01
2017-05-04T11:00:05.620Z,1011.95
2017-05-04T11:01:06.964Z,1011.91
2017-05-04T11:02:08.255Z,1011.9
2017-05-04T11:03:09.482Z,1011.89
2017-05-04T11:04:10.728Z,1011.88
2017-05-04T11:05:11.973Z,1011.9
2017-05-04T11:06:13.247Z,1011.85
2017-05-04T11:07:14.575Z,1011.82
2017-05-04T11:08:15.816Z,1011.89
2017-05-04T11:09:17.065Z,1011.88
2017-05-04T11:10:18.328Z,1011.89
2017-05-04T11:11:19.556Z,1011.84
2017-05-04T11:12:20.811Z,1011.93
2017-05-04T11:13:22.038Z,1011.91
2017-05-04T11:14:23.281Z,1011.87
2017-05-04T11:15:24.525Z,1011.88
2017-05-04T11:16:25.852Z,1011.87
2017-05-04T11:17:27.143Z,1011.9
2017-05-04T11:18:28.507Z,1011.9
2017-05-04T11:19:29.738Z,1011.93
2017-05-04T11:20:31.176Z,1011.84
2017-05-04T11:21:32.433Z,1011.83
2017-05-04T11:22:33.673Z,1011.76
2017-05-04T11:23:34.919Z,1011.75
2017-05-04T11:24:36.290Z,1011.8
2017-05-04T11:25:37.585Z,1011.91
2017-05-04T11:26:38.842Z,1011.78
2017-05-04T11:27:40.087Z,1011.8
2017-05-04T11:28:41.341Z,1011.8
2017-05-04T11:29:42.684Z,1011.8
2017-05-04T11:30:43.928Z,1011.85
2017-05-04T11:31:45.164Z,1011.89
2017-05-04T11:32:46.393Z,1011.93
2017-05-04T11:33:47.633Z,1011.91
2017-05-04T11:34:48.910Z,1011.89
2017-05-04T11:35:50.268Z,1011.89
2017-05-04T11:36:51.715Z,1011.97
2017-05-04T11:37:52.901Z,1011.92
2017-05-04T11:38:54.207Z,1011.88
2017-05-04T11:39:55.471Z,1011.84
2017-05-04T11:40:56.805Z,1011.93
2017-05-04T11:41:58.090Z,1012.01
2017-05-04T11:42:59.307Z,1011.92
2017-05-04T11:44:00.563Z,1011.83
2017-05-04T11:45:01.814Z,1011.8
2017-05-04T11:46:03.061Z,1011.79
2017-05-04T11:47:04.335Z,1011.81
2017-05-04T11:48:05.640Z,1011.75
2017-05-04T11:49:06.887Z,1011.79
2017-05-04T11:50:08.174Z,1011.73
2017-05-04T11:51:09.439Z,1011.79
2017-05-04T11:52:10.684Z,1011.74
2017-05-04T11:53:11.957Z,1011.77
2017-05-04T11:54:13.170Z,1011.74
2017-05-04T11:55:14.481Z,1011.78
2017-05-04T11:56:15.750Z,1011.76
2017-05-04T11:57:17.008Z,1011.75
2017-05-04T11:58:18.228Z,1011.74
2017-05-04T11:59:19.481Z,1011.79
2017-05-04T12:00:20.766Z,1011.82
2017-05-04T12:01:22.053Z,1011.73
2017-05-04T12:02:23.336Z,1011.7
2017-05-04T12:03:24.597Z,1011.78
2017-05-04T16:54:49.698Z,1012.19
2017-05-04T16:55:51.141Z,1012.13
2017-05-04T16:56:52.418Z,1012.13
2017-05-04T16:57:53.655Z,1012.14
2017-05-04T16:58:54.919Z,1012.18
2017-05-04T16:59:56.159Z,1012.15
2017-05-04T17:00:57.429Z,1012.17
2017-05-04T17:01:58.693Z,1012.14
2017-05-04T17:02:59.968Z,1012.14
2017-05-04T17:04:01.208Z,1012.07
2017-05-04T17:05:02.463Z,1012.1
2017-05-04T17:06:03.706Z,1012.09
2017-05-04T17:07:05.045Z,1012.1
2017-05-04T17:08:06.360Z,1012.12
2017-05-04T17:09:07.596Z,1012.16
2017-05-04T17:10:08.833Z,1012.13
2017-05-04T17:11:10.115Z,1012.23
2017-05-04T17:12:11.475Z,1012.14
2017-05-04T17:13:12.792Z,1012.11
2017-05-04T17:14:14.122Z,1012.23